Time;durP1;ratioP1;P1;durP2;ratioP2;P2;SDS_P1;SDS_P2;PMS_P1;PMS_P2;Temp;Humidity;BMP_temperature;BMP_pressure;BME280_temperature;BME280_humidity;BME280_pressure;Samples;Min_cycle;Max_cycle;Signal;HPM_P1;HPM_P2
2022/04/10 00:01:32;;;;;;;2.80;2.27;;;;;;;15.42;51.22;98570.30;1836973;77;21085;-60
2022/04/10 00:04:00;;;;;;;2.40;2.00;;;;;;;15.42;51.20;98568.95;1824821;78;20982;-59
2022/04/10 00:06:28;;;;;;;2.52;2.33;;;;;;;15.41;51.20;98564.64;1837196;78;21011;-59
2022/04/10 00:08:56;;;;;;;2.58;2.25;;;;;;;15.39;51.20;98574.22;1837095;78;20991;-59
2022/04/10 00:11:25;;;;;;;2.10;1.90;;;;;;;15.40;51.21;98569.70;1837077;78;20995;-60
2022/04/10 00:13:53;;;;;;;2.10;1.90;;;;;;;15.39;51.21;98578.23;1837108;78;21014;-60
2022/04/10 00:16:22;;;;;;;2.22;1.98;;;;;;;15.39;51.22;98586.80;1837017;78;21521;-61
2022/04/10 00:18:48;;;;;;;2.30;2.10;;;;;;;15.38;51.20;98583.84;1835338;78;21033;-59
2022/04/10 00:21:16;;;;;;;2.12;1.92;;;;;;;15.38;51.23;98590.00;1804265;79;21478;-59
2022/04/10 00:23:44;;;;;;;3.00;2.17;;;;;;;15.37;51.23;98591.03;1804171;79;21033;-59
2022/04/10 00:26:13;;;;;;;1.85;1.65;;;;;;;15.36;51.24;98588.08;1804141;79;21010;-60
2022/04/10 00:28:41;;;;;;;2.10;1.90;;;;;;;15.36;51.25;98592.63;1804295;79;21884;-59
2022/04/10 00:31:09;;;;;;;1.92;1.77;;;;;;;15.34;51.25;98608.89;1804162;79;20990;-59
2022/04/10 00:33:35;;;;;;;2.42;2.20;;;;;;;15.34;51.24;98614.25;1804204;79;20974;-59
2022/04/10 00:36:02;;;;;;;1.95;1.82;;;;;;;15.35;51.24;98613.19;1805268;78;21589;-59
2022/04/10 00:38:29;;;;;;;1.75;1.62;;;;;;;15.34;51.24;98615.05;1804487;79;20978;-59
2022/04/10 00:40:56;;;;;;;2.20;1.85;;;;;;;15.33;51.24;98611.27;1820759;78;21129;-59
2022/04/10 00:43:28;;;;;;;2.10;1.92;;;;;;;15.33;51.26;98620.63;1823385;78;21009;-60
2022/04/10 00:45:51;;;;;;;2.10;1.90;;;;;;;15.32;51.26;98613.66;1822564;78;21084;-61
2022/04/10 00:48:18;;;;;;;2.12;1.92;;;;;;;15.31;51.27;98613.34;1823745;78;21045;-59
2022/04/10 00:51:40;;;;;;;1.95;1.77;;;;;;;15.30;51.26;98615.22;1823395;78;21045;-60
2022/04/10 00:53:13;;;;;;;2.25;2.00;;;;;;;15.31;51.27;98617.36;1833793;77;22083;-59
2022/04/10 00:55:39;;;;;;;2.00;1.80;;;;;;;15.28;51.26;98614.63;1777972;80;21034;-60
2022/04/10 00:58:06;;;;;;;1.82;1.67;;;;;;;15.30;51.27;98615.75;1777953;80;21555;-59
2022/04/10 01:00:34;;;;;;;1.60;1.50;;;;;;;15.28;51.28;98614.63;1778243;80;21002;-59
2022/04/10 01:03:01;;;;;;;1.72;1.62;;;;;;;15.27;51.27;98614.32;1776506;80;21088;-59
2022/04/10 01:05:29;;;;;;;1.87;1.70;;;;;;;15.26;51.25;98612.70;1778320;80;22046;-60
2022/04/10 01:07:57;;;;;;;1.95;1.80;;;;;;;15.26;51.27;98634.11;1778749;80;21069;-60
2022/04/10 01:10:24;;;;;;;1.95;1.75;;;;;;;15.25;51.26;98641.02;1799602;78;21041;-60
2022/04/10 01:12:51;;;;;;;1.90;1.80;;;;;;;15.25;51.28;98638.34;1784905;80;21053;-58
2022/04/10 01:15:19;;;;;;;2.47;2.00;;;;;;;15.25;51.26;98642.35;1784760;80;21603;-59
2022/04/10 01:17:48;;;;;;;1.62;1.52;;;;;;;15.24;51.29;98649.56;1758709;80;21144;-60
2022/04/10 01:20:14;;;;;;;1.90;1.70;;;;;;;15.23;51.29;98656.48;1785170;80;21450;-60
2022/04/10 01:22:44;;;;;;;1.70;1.60;;;;;;;15.23;51.29;98657.28;1785085;80;21477;-61
2022/04/10 01:25:13;;;;;;;1.77;1.55;;;;;;;15.22;51.27;98650.31;1784955;80;21033;-59
2022/04/10 01:27:42;;;;;;;2.02;1.80;;;;;;;15.21;51.28;98652.68;1798691;79;21085;-59
2022/04/10 01:30:11;;;;;;;2.00;1.80;;;;;;;15.21;51.28;98654.55;1817077;79;21184;-59
2022/04/10 01:32:38;;;;;;;1.98;1.77;;;;;;;15.21;51.26;98659.90;1817385;79;21057;-59
2022/04/10 01:35:07;;;;;;;1.60;1.50;;;;;;;15.19;51.27;98658.78;1817132;78;21034;-61
2022/04/10 01:37:36;;;;;;;1.77;1.60;;;;;;;15.19;51.28;98650.75;1789993;79;21040;-60
2022/04/10 01:40:08;;;;;;;2.30;2.10;;;;;;;15.19;51.28;98661.98;1818055;78;21623;-59
2022/04/10 01:42:36;;;;;;;1.70;1.60;;;;;;;15.18;51.28;98676.39;1819456;78;21060;-60
2022/04/10 01:45:05;;;;;;;1.82;1.72;;;;;;;15.16;51.28;98671.25;1819103;78;22013;-60
2022/04/10 01:47:31;;;;;;;1.62;1.52;;;;;;;15.16;51.27;98684.63;1819838;78;21473;-60
2022/04/10 01:49:58;;;;;;;1.80;1.70;;;;;;;15.16;51.29;98685.97;1819664;78;21022;-60
2022/04/10 01:52:25;;;;;;;1.92;1.80;;;;;;;15.16;51.26;98695.86;1819739;78;20997;-59
2022/04/10 01:54:53;;;;;;;1.90;1.80;;;;;;;15.16;51.26;98698.53;1819561;78;21578;-60
2022/04/10 01:57:21;;;;;;;1.50;1.40;;;;;;;15.14;51.25;98688.89;1819336;78;21005;-59
2022/04/10 01:59:48;;;;;;;1.77;1.67;;;;;;;15.13;51.25;98684.56;1819573;78;21508;-58
2022/04/10 02:02:16;;;;;;;2.22;2.02;;;;;;;15.13;51.25;98689.11;1818796;78;21029;-60
2022/04/10 02:04:43;;;;;;;1.95;1.80;;;;;;;15.11;51.25;98694.67;1819474;78;21034;-59
2022/04/10 02:07:09;;;;;;;1.70;1.50;;;;;;;15.11;51.24;98704.56;1819400;78;21961;-60
2022/04/10 02:09:38;;;;;;;2.08;1.80;;;;;;;15.11;51.24;98708.58;1819511;78;21014;-59
2022/04/10 02:12:08;;;;;;;1.60;1.50;;;;;;;15.10;51.25;98719.80;1819438;78;22038;-59
2022/04/10 02:14:35;;;;;;;1.55;1.45;;;;;;;15.09;51.23;98724.84;1804564;78;20991;-60
2022/04/10 02:17:04;;;;;;;1.65;1.55;;;;;;;15.09;51.25;98732.86;1814850;78;21045;-60
2022/04/10 02:19:31;;;;;;;1.90;1.70;;;;;;;15.08;51.24;98739.23;1794976;78;21133;-59
2022/04/10 02:21:59;;;;;;;1.40;1.30;;;;;;;15.06;51.23;98734.63;1787134;80;21198;-60
2022/04/10 02:24:26;;;;;;;1.92;1.70;;;;;;;15.07;51.20;98728.79;1787109;80;21084;-60
2022/04/10 02:26:52;;;;;;;1.82;1.50;;;;;;;15.05;51.23;98730.34;1787097;80;20986;-60
2022/04/10 02:29:19;;;;;;;1.60;1.50;;;;;;;15.06;51.22;98740.52;1787218;80;21470;-59
2022/04/10 02:31:46;;;;;;;1.92;1.72;;;;;;;15.04;51.22;98739.39;1787132;80;21018;-61
2022/04/10 02:34:12;;;;;;;1.62;1.50;;;;;;;15.04;51.22;98738.05;1787263;80;20997;-58
2022/04/10 02:36:39;;;;;;;1.40;1.30;;;;;;;15.04;51.22;98742.59;1788297;78;21072;-60
2022/04/10 02:39:07;;;;;;;1.65;1.50;;;;;;;15.03;51.21;98744.98;1787104;80;21029;-59
2022/04/10 02:41:35;;;;;;;1.87;1.67;;;;;;;15.03;51.23;98742.31;1775853;80;20986;-59
2022/04/10 02:44:02;;;;;;;1.80;1.70;;;;;;;15.02;51.20;98743.33;1774303;80;21079;-59
2022/04/10 02:46:29;;;;;;;1.85;1.72;;;;;;;15.01;51.21;98741.19;1774190;80;20982;-59
2022/04/10 02:48:56;;;;;;;1.60;1.50;;;;;;;15.00;51.19;98745.41;1774061;80;21006;-60
2022/04/10 02:51:24;;;;;;;1.77;1.60;;;;;;;14.99;51.20;98737.92;1774237;80;21081;-59
2022/04/10 02:53:53;;;;;;;1.50;1.40;;;;;;;14.99;51.20;98744.61;1757283;80;21029;-60
2022/04/10 02:56:20;;;;;;;1.72;1.50;;;;;;;14.97;51.18;98739.16;1752226;81;21188;-60
2022/04/10 02:58:46;;;;;;;1.70;1.60;;;;;;;14.97;51.21;98746.69;1752338;81;20994;-60
2022/04/10 03:01:13;;;;;;;1.65;1.55;;;;;;;14.97;51.22;98742.67;1752260;81;20981;-60
2022/04/10 03:03:40;;;;;;;1.60;1.50;;;;;;;14.96;51.20;98746.90;1752226;81;21061;-59
2022/04/10 03:06:08;;;;;;;1.50;1.37;;;;;;;14.95;51.21;98747.42;1752462;81;21080;-60
2022/04/10 03:08:34;;;;;;;1.70;1.50;;;;;;;14.94;51.22;98757.28;1752342;81;21219;-60
2022/04/10 03:11:03;;;;;;;1.67;1.42;;;;;;;14.93;51.21;98762.84;1783680;80;21115;-58
2022/04/10 03:13:30;;;;;;;1.50;1.40;;;;;;;14.93;51.21;98761.50;1784327;80;21129;-59
2022/04/10 03:15:57;;;;;;;1.50;1.40;;;;;;;14.91;51.21;98759.08;1784364;80;21002;-60
2022/04/10 03:18:24;;;;;;;1.60;1.50;;;;;;;14.90;51.21;98760.63;1784518;80;21517;-59
2022/04/10 03:20:51;;;;;;;1.87;1.70;;;;;;;14.90;51.22;98771.33;1744091;82;21128;-59
2022/04/10 03:23:18;;;;;;;1.70;1.60;;;;;;;14.90;51.21;98768.65;1738888;82;21063;-59
2022/04/10 03:25:46;;;;;;;1.70;1.60;;;;;;;14.90;51.21;98765.98;1749743;80;21091;-59
2022/04/10 03:28:12;;;;;;;1.95;1.70;;;;;;;14.89;51.21;98765.66;1782681;80;21002;-59
2022/04/10 03:30:39;;;;;;;1.82;1.62;;;;;;;14.88;51.21;98765.38;1782782;80;21014;-59
2022/04/10 03:33:07;;;;;;;2.17;1.50;;;;;;;14.87;51.22;98771.25;1782675;80;21241;-60
2022/04/10 03:35:34;;;;;;;2.22;1.50;;;;;;;14.87;51.22;98774.42;1782571;80;21146;-60
2022/04/10 03:38:02;;;;;;;2.65;1.70;;;;;;;14.86;51.22;98771.47;1782762;80;21013;-59
2022/04/10 03:40:29;;;;;;;2.60;1.60;;;;;;;14.85;51.23;98777.31;1789915;78;21064;-59
2022/04/10 03:42:56;;;;;;;1.60;1.40;;;;;;;14.85;51.23;98780.52;1810410;78;21082;-59
2022/04/10 03:45:25;;;;;;;2.12;1.75;;;;;;;14.84;51.23;98776.22;1764007;81;21044;-61
2022/04/10 03:47:52;;;;;;;2.33;1.52;;;;;;;14.84;51.25;98786.39;1765065;81;21039;-61
2022/04/10 03:50:18;;;;;;;2.00;1.77;;;;;;;14.84;51.23;98777.55;1838061;78;20994;-60
2022/04/10 03:52:46;;;;;;;1.75;1.45;;;;;;;14.83;51.24;98782.06;1842606;77;21005;-59
2022/04/10 03:55:14;;;;;;;3.35;2.02;;;;;;;14.83;51.24;98784.73;1847859;77;21072;-60
2022/04/10 03:57:41;;;;;;;2.33;2.12;;;;;;;14.82;51.25;98787.66;1847900;77;21470;-60
2022/04/10 04:00:11;;;;;;;2.35;2.08;;;;;;;14.82;51.27;98791.66;1846117;77;21018;-61
2022/04/10 04:02:45;;;;;;;3.22;1.90;;;;;;;14.81;51.28;98795.36;1847257;77;20990;-60
2022/04/10 04:05:13;;;;;;;2.00;1.80;;;;;;;14.82;51.26;98801.02;1846923;77;21592;-60
2022/04/10 04:07:42;;;;;;;3.70;2.02;;;;;;;14.81;51.28;98799.37;1847769;77;21124;-60
2022/04/10 04:10:10;;;;;;;2.85;2.20;;;;;;;14.80;51.29;98804.44;1847954;77;21958;-60
2022/04/10 04:12:39;;;;;;;2.72;1.90;;;;;;;14.80;51.32;98799.90;1847741;77;21044;-60
2022/04/10 04:15:07;;;;;;;3.87;2.15;;;;;;;14.79;51.29;98798.24;1847776;77;21115;-60
2022/04/10 04:17:37;;;;;;;2.87;1.92;;;;;;;14.80;51.29;98811.12;1847177;77;21002;-60
2022/04/10 04:20:06;;;;;;;3.52;2.05;;;;;;;14.80;51.32;98812.45;1847779;77;21021;-60
2022/04/10 04:22:37;;;;;;;3.83;2.37;;;;;;;14.79;51.32;98822.31;1847803;77;21058;-60
2022/04/10 04:25:08;;;;;;;3.25;2.50;;;;;;;14.80;51.33;98823.15;1844434;77;21008;-59
2022/04/10 04:27:36;;;;;;;4.03;2.42;;;;;;;14.79;51.34;98827.66;1836413;77;20995;-59
2022/04/10 04:30:05;;;;;;;2.77;2.42;;;;;;;14.79;51.34;98828.19;1834009;78;20981;-59
2022/04/10 04:32:33;;;;;;;3.87;2.52;;;;;;;14.80;51.33;98827.16;1834136;78;21035;-59
2022/04/10 04:34:59;;;;;;;3.90;2.60;;;;;;;14.80;51.35;98832.51;1836295;77;21940;-59
2022/04/10 04:37:27;;;;;;;3.72;2.70;;;;;;;14.80;51.35;98842.67;1764093;81;21008;-59
2022/04/10 04:39:53;;;;;;;3.45;2.87;;;;;;;14.79;51.34;98841.02;1764948;81;21019;-60
2022/04/10 04:42:20;;;;;;;5.45;2.72;;;;;;;14.80;51.36;98843.20;1766982;81;21499;-60
2022/04/10 04:44:47;;;;;;;2.95;2.60;;;;;;;14.79;51.37;98854.39;1843869;77;21065;-60
2022/04/10 04:47:14;;;;;;;4.90;2.95;;;;;;;14.78;51.36;98850.63;1843881;77;21026;-60
2022/04/10 04:49:41;;;;;;;4.28;2.90;;;;;;;14.80;51.35;98861.39;1843778;77;21049;-61
2022/04/10 04:54:04;;;;;;;3.67;2.92;;;;;;;14.85;51.38;98864.73;1870253;76;28081;-59
2022/04/10 04:56:31;;;;;;;4.22;3.47;;;;;;;14.80;51.39;98876.09;1826584;78;20926;-60
2022/04/10 04:58:59;;;;;;;3.50;3.10;;;;;;;14.80;51.37;98876.09;1826506;78;20979;-60
2022/04/10 05:01:28;;;;;;;6.72;3.15;;;;;;;14.81;51.39;98883.59;1826422;78;20938;-59
2022/04/10 05:03:55;;;;;;;5.90;3.45;;;;;;;14.81;51.36;98886.27;1826507;78;20997;-60
2022/04/10 05:06:24;;;;;;;5.83;3.40;;;;;;;14.81;51.38;98892.42;1826492;78;21033;-60
2022/04/10 05:08:53;;;;;;;4.30;3.10;;;;;;;14.81;51.39;98892.95;1810603;78;20969;-60
2022/04/10 05:11:20;;;;;;;4.03;3.33;;;;;;;14.81;51.40;98895.63;1794055;80;21210;-59
2022/04/10 05:13:48;;;;;;;6.25;3.33;;;;;;;14.81;51.39;98898.30;1793824;79;20977;-60
2022/04/10 05:16:16;;;;;;;4.10;3.20;;;;;;;14.82;51.39;98898.61;1793976;80;21008;-60
2022/04/10 05:18:44;;;;;;;5.90;3.27;;;;;;;14.81;51.40;98894.28;1793922;79;21497;-59
2022/04/10 05:21:12;;;;;;;4.70;3.42;;;;;;;14.82;51.40;98902.63;1794005;79;21033;-60
2022/04/10 05:23:39;;;;;;;5.55;3.58;;;;;;;14.82;51.40;98903.96;1794013;79;21227;-60
2022/04/10 05:26:08;;;;;;;5.53;3.22;;;;;;;14.82;51.40;98907.45;1793645;78;21029;-60
2022/04/10 05:28:35;;;;;;;4.50;3.10;;;;;;;14.83;51.41;98898.90;1793963;80;21041;-60
2022/04/10 05:31:03;;;;;;;4.33;3.47;;;;;;;14.84;51.43;98908.58;1822848;78;21473;-60
2022/04/10 05:33:34;;;;;;;4.53;3.27;;;;;;;14.83;51.40;98905.06;1814724;79;21004;-60
2022/04/10 05:36:01;;;;;;;7.20;3.75;;;;;;;14.84;51.43;98909.38;1814631;79;21770;-59
2022/04/10 05:38:29;;;;;;;4.35;3.25;;;;;;;14.86;51.39;98920.68;1814660;78;21021;-60
2022/04/10 05:40:56;;;;;;;5.10;3.17;;;;;;;14.85;51.43;98915.02;1814916;79;21014;-60
2022/04/10 05:43:24;;;;;;;3.80;3.35;;;;;;;14.87;51.41;98922.34;1800081;78;21034;-59
2022/04/10 05:45:52;;;;;;;4.25;3.20;;;;;;;14.87;51.43;98918.81;1794000;79;21012;-61
2022/04/10 05:48:18;;;;;;;4.62;3.40;;;;;;;14.88;51.42;98923.15;1794018;79;21089;-59
2022/04/10 05:50:45;;;;;;;6.05;3.60;;;;;;;14.89;51.41;98920.27;1795994;78;21009;-59
2022/04/10 05:53:12;;;;;;;4.75;3.37;;;;;;;14.90;51.41;98926.42;1829542;78;21075;-59
2022/04/10 05:55:40;;;;;;;4.37;3.35;;;;;;;14.89;51.40;98924.27;1832700;78;21576;-60
2022/04/10 05:58:09;;;;;;;5.00;3.40;;;;;;;14.91;51.40;98928.89;1832673;77;20978;-59
2022/04/10 06:00:36;;;;;;;4.92;3.50;;;;;;;14.91;51.41;98929.38;1831596;78;21300;-59
2022/04/10 06:03:05;;;;;;;4.42;3.02;;;;;;;14.93;51.41;98933.99;1832130;77;20988;-62
2022/04/10 06:05:32;;;;;;;4.67;3.42;;;;;;;14.92;51.41;98927.84;1832020;78;21474;-59
2022/04/10 06:08:00;;;;;;;5.40;3.42;;;;;;;14.94;51.40;98928.96;1831372;77;21056;-60
2022/04/10 06:10:29;;;;;;;4.35;3.10;;;;;;;14.95;51.39;98930.61;1832032;77;21013;-60
2022/04/10 06:13:08;;;;;;;4.05;3.20;;;;;;;14.95;51.39;98926.60;1831889;77;20982;-60
2022/04/10 06:15:37;;;;;;;4.08;3.05;;;;;;;14.95;51.39;98927.94;1815711;78;21032;-59
2022/04/10 06:18:04;;;;;;;4.58;3.00;;;;;;;14.97;51.38;98929.03;1831775;78;21473;-60
2022/04/10 06:20:31;;;;;;;5.85;3.40;;;;;;;14.97;51.39;98922.34;1831941;78;21002;-59
2022/04/10 06:23:00;;;;;;;3.90;3.08;;;;;;;14.97;51.37;98925.87;1831956;78;21029;-59
2022/04/10 06:25:29;;;;;;;5.28;3.77;;;;;;;14.98;51.35;98927.48;1831969;77;21013;-60
2022/04/10 06:27:56;;;;;;;3.98;3.02;;;;;;;14.99;51.37;98934.49;1831826;77;21002;-59
2022/04/10 06:30:24;;;;;;;5.05;3.17;;;;;;;14.99;51.37;98931.81;1831928;78;21067;-59
2022/04/10 06:32:52;;;;;;;4.20;3.45;;;;;;;14.99;51.35;98933.16;1851477;76;21029;-60
2022/04/10 06:35:20;;;;;;;4.12;3.27;;;;;;;15.02;51.35;98937.24;1819840;78;20973;-60
2022/04/10 06:37:47;;;;;;;5.00;3.20;;;;;;;15.03;51.36;98942.91;1831926;78;21241;-60
2022/04/10 06:40:13;;;;;;;4.75;3.10;;;;;;;15.02;51.35;98940.73;1831953;78;21341;-60
2022/04/10 06:42:41;;;;;;;5.75;2.95;;;;;;;15.04;51.35;98945.34;1832192;78;21083;-59
2022/04/10 06:45:16;;;;;;;4.95;3.70;;;;;;;15.04;51.35;98950.69;1824779;77;21126;-60
2022/04/10 06:47:55;;;;;;;3.90;3.02;;;;;;;15.06;51.35;98955.30;1831910;77;21013;-60
2022/04/10 06:50:23;;;;;;;3.35;2.70;;;;;;;15.06;51.35;98957.16;1822506;77;21204;-59
2022/04/10 06:52:50;;;;;;;4.03;2.90;;;;;;;15.06;51.34;98957.98;1829190;78;21021;-60
2022/04/10 06:55:17;;;;;;;4.40;2.95;;;;;;;15.08;51.31;98967.94;1831887;78;21034;-60
2022/04/10 06:57:45;;;;;;;4.35;3.00;;;;;;;15.08;51.33;98962.59;1831853;78;21009;-61
2022/04/10 07:00:15;;;;;;;4.58;3.50;;;;;;;15.09;51.32;98972.27;1831922;77;21015;-60
2022/04/10 07:02:44;;;;;;;3.50;2.85;;;;;;;15.10;51.32;98983.28;1831940;77;21517;-61
2022/04/10 07:05:11;;;;;;;5.45;3.25;;;;;;;15.10;51.32;98987.30;1831777;77;21017;-60
2022/04/10 07:07:39;;;;;;;4.70;3.25;;;;;;;15.12;51.29;98988.39;1818546;77;20990;-59
2022/04/10 07:10:07;;;;;;;3.22;2.67;;;;;;;15.13;51.31;98986.03;1799226;79;21029;-59
2022/04/10 07:12:35;;;;;;;5.08;3.08;;;;;;;15.13;51.31;98992.20;1799263;79;21040;-59
2022/04/10 07:15:03;;;;;;;3.22;2.72;;;;;;;15.14;51.32;98993.85;1799208;79;21294;-60
2022/04/10 07:17:30;;;;;;;3.92;2.42;;;;;;;15.15;51.32;98994.66;1799499;79;21044;-60
2022/04/10 07:19:59;;;;;;;3.12;2.65;;;;;;;15.17;51.32;98999.81;1799009;79;20981;-59
2022/04/10 07:25:12;;;;;;;4.37;2.40;;;;;;;15.19;51.34;99003.08;1800429;78;21565;-60
2022/04/10 07:27:40;;;;;;;3.98;2.67;;;;;;;15.19;51.35;99015.13;1799130;79;21176;-60
2022/04/10 07:30:14;;;;;;;3.90;3.05;;;;;;;15.20;51.33;99010.05;1785785;79;21001;-61
2022/04/10 07:32:42;;;;;;;3.72;2.90;;;;;;;15.20;51.35;99016.25;1822128;78;21485;-60
2022/04/10 07:35:11;;;;;;;3.83;3.10;;;;;;;15.19;51.41;99015.94;1831385;77;20982;-59
2022/04/10 07:37:52;;;;;;;3.08;2.55;;;;;;;15.21;51.38;99024.56;1831765;77;21025;-59
2022/04/10 07:40:19;;;;;;;4.33;3.10;;;;;;;15.22;51.41;99020.02;1831508;77;21186;-59
2022/04/10 07:42:46;;;;;;;4.08;2.50;;;;;;;15.23;51.45;99029.70;1824878;78;21004;-60
2022/04/10 07:47:25;;;;;;;3.55;2.50;;;;;;;15.23;51.45;99031.05;1831371;78;21036;-59
2022/04/10 07:47:53;;;;;;;2.72;2.30;;;;;;;15.24;51.45;99030.84;1829553;78;20969;-60
2022/04/10 07:50:19;;;;;;;2.83;2.52;;;;;;;15.26;51.44;99031.93;1831952;78;21028;-59
2022/04/10 07:52:47;;;;;;;3.45;2.62;;;;;;;15.27;51.45;99030.91;1829879;78;21129;-59
2022/04/10 07:55:16;;;;;;;4.85;2.83;;;;;;;15.29;51.42;99031.52;1812632;79;21005;-60
2022/04/10 07:57:45;;;;;;;2.95;2.27;;;;;;;15.29;51.42;99029.65;1813792;78;21488;-60
2022/04/10 08:00:17;;;;;;;3.27;2.42;;;;;;;15.31;51.39;99037.47;1793227;79;21021;-59
2022/04/10 08:02:54;;;;;;;2.58;2.30;;;;;;;15.32;51.39;99039.13;1792983;79;21537;-60
2022/04/10 08:05:26;;;;;;;3.17;2.25;;;;;;;15.33;51.37;99039.41;1791755;79;21138;-60
2022/04/10 08:08:12;;;;;;;3.15;2.83;;;;;;;15.34;51.39;99045.08;1793315;79;20989;-59
2022/04/10 08:10:41;;;;;;;3.58;2.75;;;;;;;15.34;51.38;99039.72;1793411;80;20993;-59
2022/04/10 08:13:09;;;;;;;3.17;2.52;;;;;;;15.35;51.38;99041.34;1793262;79;21489;-59
2022/04/10 08:15:37;;;;;;;2.62;2.17;;;;;;;15.37;51.36;99037.94;1794376;78;20997;-60
2022/04/10 08:18:03;;;;;;;2.42;2.22;;;;;;;15.38;51.36;99034.23;1793325;80;21244;-60
2022/04/10 08:20:30;;;;;;;2.92;2.58;;;;;;;15.39;51.34;99035.86;1793299;80;21018;-59
2022/04/10 08:23:00;;;;;;;3.70;2.47;;;;;;;15.41;51.34;99035.13;1793181;79;21020;-59
2022/04/10 08:25:26;;;;;;;2.62;2.25;;;;;;;15.43;51.32;99040.27;1793379;80;21497;-59
2022/04/10 08:27:53;;;;;;;2.58;2.37;;;;;;;15.45;51.30;99046.22;1793286;80;20970;-60
2022/04/10 08:30:20;;;;;;;2.95;2.50;;;;;;;15.46;51.24;99051.36;1793243;79;21232;-60
2022/04/10 08:32:48;;;;;;;2.67;2.20;;;;;;;15.48;51.25;99049.81;1816197;78;21528;-60
2022/04/10 08:35:15;;;;;;;2.30;2.02;;;;;;;15.50;51.23;99045.06;1825865;78;20998;-60
2022/04/10 08:37:41;;;;;;;3.35;2.67;;;;;;;15.52;51.22;99037.10;1825702;78;20970;-60
2022/04/10 08:40:10;;;;;;;2.30;2.10;;;;;;;15.54;51.18;99042.25;1826004;78;21084;-60
2022/04/10 08:42:38;;;;;;;3.70;2.60;;;;;;;15.55;51.19;99045.23;1825851;78;21044;-60
2022/04/10 08:45:08;;;;;;;2.92;2.35;;;;;;;15.56;51.16;99041.52;1824748;78;21674;-59
2022/04/10 08:47:42;;;;;;;2.42;2.20;;;;;;;15.59;51.12;99041.58;1819108;78;21022;-60
2022/04/10 08:50:08;;;;;;;3.72;2.50;;;;;;;15.61;51.11;99040.87;1806131;78;21354;-61
2022/04/10 08:52:35;;;;;;;2.67;2.40;;;;;;;15.61;51.12;99040.34;1793227;78;21013;-60
2022/04/10 08:55:01;;;;;;;3.20;2.35;;;;;;;15.63;51.10;99040.14;1798372;79;21173;-60
2022/04/10 08:57:28;;;;;;;2.95;2.17;;;;;;;15.64;51.10;99035.06;1799137;79;21505;-60
2022/04/10 08:59:58;;;;;;;3.37;2.40;;;;;;;15.65;51.06;99034.86;1799031;79;21005;-59
2022/04/10 09:02:25;;;;;;;2.42;2.22;;;;;;;15.66;51.08;99041.02;1799288;79;20970;-61
2022/04/10 09:04:52;;;;;;;2.65;2.20;;;;;;;15.68;51.06;99046.98;1799067;79;21017;-59
2022/04/10 09:07:20;;;;;;;2.40;2.10;;;;;;;15.69;51.02;99045.95;1800136;78;21126;-61
2022/04/10 09:09:56;;;;;;;2.42;2.20;;;;;;;15.71;51.02;99049.23;1799102;79;21057;-59
2022/04/10 09:12:23;;;;;;;2.33;1.92;;;;;;;15.72;51.01;99049.02;1799235;79;21138;-60
2022/04/10 09:14:50;;;;;;;2.95;2.20;;;;;;;15.74;51.02;99052.83;1799020;79;21029;-60
2022/04/10 09:17:22;;;;;;;4.70;2.60;;;;;;;15.76;51.02;99057.47;1799101;79;21005;-60
2022/04/10 09:19:53;;;;;;;2.33;1.92;;;;;;;15.78;50.99;99051.38;1799166;79;20989;-59
2022/04/10 09:22:37;;;;;;;2.67;2.12;;;;;;;15.80;50.95;99059.16;1799399;79;21017;-60
2022/04/10 09:25:15;;;;;;;3.08;2.30;;;;;;;15.83;50.92;99059.55;1795368;79;21020;-60
2022/04/10 09:27:45;;;;;;;3.08;2.27;;;;;;;15.84;50.93;99057.19;1795455;80;21024;-59
2022/04/10 09:30:16;;;;;;;3.37;2.20;;;;;;;15.86;50.95;99057.78;1795499;79;21141;-59
2022/04/10 09:32:50;;;;;;;2.98;2.40;;;;;;;15.87;50.91;99050.56;1821144;78;21110;-60
2022/04/10 09:35:19;;;;;;;3.12;2.00;;;;;;;15.90;50.93;99051.48;1831782;78;21519;-61
2022/04/10 09:37:53;;;;;;;3.27;2.25;;;;;;;15.90;50.89;99046.93;1832133;77;21639;-61
2022/04/10 09:40:32;;;;;;;3.50;2.42;;;;;;;15.94;50.88;99044.64;1831017;77;21012;-59
2022/04/10 09:43:10;;;;;;;3.47;2.30;;;;;;;15.96;50.90;99051.13;1831899;78;21032;-60
2022/04/10 09:45:40;;;;;;;2.72;2.20;;;;;;;15.98;50.90;99050.38;1832135;77;21123;-60
2022/04/10 09:48:29;;;;;;;2.33;1.90;;;;;;;15.99;50.90;99047.45;1832163;77;20997;-60
2022/04/10 09:51:03;;;;;;;3.00;2.15;;;;;;;16.01;50.87;99048.58;1831774;78;21072;-60
2022/04/10 09:53:33;;;;;;;3.85;2.10;;;;;;;16.03;50.90;99052.70;1831813;77;21203;-60
2022/04/10 09:56:03;;;;;;;2.52;1.90;;;;;;;16.04;50.88;99055.66;1831915;77;21029;-59
2022/04/10 09:58:31;;;;;;;2.72;2.00;;;;;;;16.05;50.88;99048.44;1806523;77;21145;-59
2022/04/10 10:00:59;;;;;;;2.35;2.15;;;;;;;16.07;50.86;99043.67;1799368;79;20990;-60
2022/04/10 10:03:36;;;;;;;2.22;1.95;;;;;;;16.09;50.83;99048.32;1799360;79;20994;-61
2022/04/10 10:05:58;;;;;;;3.75;2.10;;;;;;;16.10;50.82;99050.75;1798258;79;21005;-60
2022/04/10 10:08:28;;;;;;;2.60;1.95;;;;;;;16.12;50.77;99047.33;1799312;79;21076;-59
2022/04/10 10:10:56;;;;;;;3.33;2.17;;;;;;;16.14;50.76;99039.61;1799227;79;21255;-60
2022/04/10 10:13:26;;;;;;;2.67;1.98;;;;;;;16.16;50.72;99053.60;1799199;79;21009;-60
2022/04/10 10:15:51;;;;;;;2.55;1.98;;;;;;;16.17;50.73;99056.06;1800249;78;20986;-59
2022/04/10 10:18:18;;;;;;;2.75;2.20;;;;;;;16.19;50.70;99058.00;1799442;79;21675;-60
2022/04/10 10:20:47;;;;;;;2.65;2.33;;;;;;;16.20;50.68;99054.27;1799281;79;20997;-59
2022/04/10 10:23:15;;;;;;;2.40;2.08;;;;;;;16.21;50.65;99062.62;1758756;79;21149;-59
2022/04/10 10:26:06;;;;;;;2.42;2.22;;;;;;;16.24;50.63;99066.70;1799346;79;21005;-59
2022/04/10 10:29:01;;;;;;;2.65;2.45;;;;;;;16.24;50.60;99070.72;1798398;79;21044;-60
2022/04/10 10:31:55;;;;;;;2.47;1.95;;;;;;;16.24;50.60;99068.86;1806990;78;21009;-60
2022/04/10 10:34:25;;;;;;;2.20;1.92;;;;;;;16.24;50.58;99072.88;1831880;78;21958;-61
2022/04/10 10:36:54;;;;;;;2.80;2.15;;;;;;;16.25;50.63;99073.19;1831989;78;21095;-61
2022/04/10 10:39:21;;;;;;;2.60;2.00;;;;;;;16.25;50.63;99074.53;1832199;77;21064;-59
2022/04/10 10:41:51;;;;;;;2.10;1.90;;;;;;;16.26;50.61;99084.22;1831941;77;21098;-60
2022/04/10 10:44:31;;;;;;;2.55;2.17;;;;;;;16.27;50.58;99079.67;1831953;77;21461;-60
2022/04/10 10:47:00;;;;;;;4.12;2.80;;;;;;;16.28;50.56;99083.48;1831973;78;20994;-58
2022/04/10 10:49:31;;;;;;;4.10;3.10;;;;;;;16.30;50.87;99093.45;1807923;77;21033;-59
2022/04/10 10:51:58;;;;;;;3.60;2.77;;;;;;;16.34;51.46;99091.66;1798676;78;21076;-59
2022/04/10 10:54:34;;;;;;;5.05;2.45;;;;;;;16.38;51.42;99091.01;1796978;79;21521;-60
2022/04/10 10:57:29;;;;;;;3.12;2.47;;;;;;;16.40;51.30;99088.92;1806587;78;21044;-60
2022/04/10 11:00:09;;;;;;;2.77;2.30;;;;;;;16.43;51.28;99095.17;1824722;78;21541;-59
2022/04/10 11:02:38;;;;;;;3.55;2.05;;;;;;;16.43;51.32;99084.97;1825856;78;21032;-60
2022/04/10 11:05:29;;;;;;;2.47;2.25;;;;;;;16.45;51.31;99081.55;1820217;78;20986;-60
2022/04/10 11:08:09;;;;;;;2.20;2.00;;;;;;;16.45;51.36;99082.89;1787646;79;21025;-60
2022/04/10 11:10:52;;;;;;;2.67;2.42;;;;;;;16.45;51.34;99071.63;1793322;79;21470;-59
2022/04/10 11:13:20;;;;;;;5.58;2.47;;;;;;;16.45;51.29;99072.97;1793538;79;20989;-61
2022/04/10 11:15:49;;;;;;;2.83;2.47;;;;;;;16.45;51.26;99084.23;1793585;79;21435;-60
2022/04/10 11:18:35;;;;;;;3.52;2.33;;;;;;;16.46;51.25;99083.20;1793355;79;21478;-59
2022/04/10 11:21:16;;;;;;;3.02;2.72;;;;;;;16.45;51.27;99082.36;1793212;79;21506;-60
2022/04/10 11:23:45;;;;;;;3.65;2.17;;;;;;;16.45;51.16;99074.84;1794356;78;21532;-59
2022/04/10 11:26:19;;;;;;;3.12;2.17;;;;;;;16.45;51.09;99077.52;1793390;79;21001;-59
2022/04/10 11:29:06;;;;;;;2.95;2.62;;;;;;;16.44;51.12;99086.09;1793474;79;21080;-59
2022/04/10 11:31:46;;;;;;;2.50;2.30;;;;;;;16.45;51.11;99084.23;1805773;78;21049;-60
2022/04/10 11:34:19;;;;;;;2.52;2.33;;;;;;;16.44;51.03;99075.91;1824291;78;21048;-61
2022/04/10 11:36:53;;;;;;;2.50;2.30;;;;;;;16.44;51.02;99076.72;1826019;78;21041;-58
2022/04/10 11:39:35;;;;;;;3.25;2.30;;;;;;;16.44;50.97;99075.91;1824914;78;21158;-59
2022/04/10 11:42:04;;;;;;;3.12;2.45;;;;;;;16.44;50.99;99082.61;1825705;78;21079;-60
2022/04/10 11:44:31;;;;;;;2.62;2.42;;;;;;;16.44;50.93;99076.72;1826055;78;21033;-60
2022/04/10 11:47:00;;;;;;;2.55;2.35;;;;;;;16.44;50.86;99079.39;1825825;78;21048;-61
2022/04/10 11:49:28;;;;;;;2.55;1.98;;;;;;;16.45;50.88;99081.55;1825705;78;21011;-60